sensor_id;sensor_type;location;lat;lon;timestamp;P1;durP1;ratioP1;P2;durP2;ratioP2
49978;SDS011;35869;50.990;6.962;2023-04-25T00:04:45;15.40;;;4.63;;
49978;SDS011;35869;50.990;6.962;2023-04-25T00:09:45;8.70;;;4.57;;
49978;SDS011;35869;50.990;6.962;2023-04-25T00:14:45;13.95;;;4.75;;
49978;SDS011;35869;50.990;6.962;2023-04-25T00:19:45;13.07;;;5.03;;
49978;SDS011;35869;50.990;6.962;2023-04-25T00:24:46;11.10;;;6.07;;
49978;SDS011;35869;50.990;6.962;2023-04-25T00:29:46;13.77;;;4.40;;
49978;SDS011;35869;50.990;6.962;2023-04-25T00:34:46;10.85;;;4.95;;
49978;SDS011;35869;50.990;6.962;2023-04-25T00:39:46;11.60;;;4.50;;
49978;SDS011;35869;50.990;6.962;2023-04-25T00:44:46;9.10;;;4.57;;
49978;SDS011;35869;50.990;6.962;2023-04-25T00:49:47;13.77;;;4.38;;
49978;SDS011;35869;50.990;6.962;2023-04-25T00:54:47;8.98;;;5.07;;
49978;SDS011;35869;50.990;6.962;2023-04-25T00:59:48;18.48;;;5.65;;
49978;SDS011;35869;50.990;6.962;2023-04-25T01:04:50;12.63;;;5.20;;
49978;SDS011;35869;50.990;6.962;2023-04-25T01:09:51;10.57;;;5.10;;
49978;SDS011;35869;50.990;6.962;2023-04-25T01:14:51;9.73;;;5.23;;
49978;SDS011;35869;50.990;6.962;2023-04-25T01:19:52;11.67;;;5.27;;
49978;SDS011;35869;50.990;6.962;2023-04-25T01:24:52;14.13;;;6.07;;
49978;SDS011;35869;50.990;6.962;2023-04-25T01:29:53;10.10;;;4.93;;
49978;SDS011;35869;50.990;6.962;2023-04-25T01:39:54;16.00;;;6.35;;
49978;SDS011;35869;50.990;6.962;2023-04-25T01:44:55;9.90;;;5.07;;
49978;SDS011;35869;50.990;6.962;2023-04-25T01:49:55;12.35;;;5.80;;
49978;SDS011;35869;50.990;6.962;2023-04-25T01:54:56;11.43;;;5.40;;
49978;SDS011;35869;50.990;6.962;2023-04-25T01:59:58;13.88;;;4.63;;
49978;SDS011;35869;50.990;6.962;2023-04-25T02:04:59;14.00;;;5.28;;
49978;SDS011;35869;50.990;6.962;2023-04-25T02:10:00;12.05;;;5.30;;
49978;SDS011;35869;50.990;6.962;2023-04-25T02:15:00;19.00;;;6.30;;
49978;SDS011;35869;50.990;6.962;2023-04-25T02:20:00;16.70;;;6.07;;
49978;SDS011;35869;50.990;6.962;2023-04-25T02:25:01;16.13;;;4.90;;
49978;SDS011;35869;50.990;6.962;2023-04-25T02:30:01;11.30;;;5.27;;
49978;SDS011;35869;50.990;6.962;2023-04-25T02:35:01;9.50;;;4.90;;
49978;SDS011;35869;50.990;6.962;2023-04-25T02:40:02;8.73;;;4.77;;
49978;SDS011;35869;50.990;6.962;2023-04-25T02:45:03;9.45;;;4.20;;
49978;SDS011;35869;50.990;6.962;2023-04-25T02:50:03;9.02;;;4.43;;
49978;SDS011;35869;50.990;6.962;2023-04-25T02:55:04;8.40;;;3.60;;
49978;SDS011;35869;50.990;6.962;2023-04-25T03:00:05;8.05;;;3.83;;
49978;SDS011;35869;50.990;6.962;2023-04-25T03:05:06;5.65;;;3.25;;
49978;SDS011;35869;50.990;6.962;2023-04-25T03:10:06;8.23;;;3.13;;
49978;SDS011;35869;50.990;6.962;2023-04-25T03:15:07;4.50;;;2.78;;
49978;SDS011;35869;50.990;6.962;2023-04-25T03:20:08;7.13;;;3.67;;
49978;SDS011;35869;50.990;6.962;2023-04-25T03:25:10;8.70;;;3.50;;
49978;SDS011;35869;50.990;6.962;2023-04-25T03:30:10;7.90;;;3.72;;
49978;SDS011;35869;50.990;6.962;2023-04-25T03:35:10;9.10;;;3.57;;
49978;SDS011;35869;50.990;6.962;2023-04-25T03:40:11;8.85;;;3.85;;
49978;SDS011;35869;50.990;6.962;2023-04-25T03:45:11;6.40;;;3.58;;
49978;SDS011;35869;50.990;6.962;2023-04-25T03:50:12;6.60;;;4.47;;
49978;SDS011;35869;50.990;6.962;2023-04-25T03:55:12;11.85;;;5.30;;
49978;SDS011;35869;50.990;6.962;2023-04-25T04:00:12;10.93;;;5.20;;
49978;SDS011;35869;50.990;6.962;2023-04-25T04:05:13;11.15;;;4.60;;
49978;SDS011;35869;50.990;6.962;2023-04-25T04:10:13;7.80;;;4.82;;
49978;SDS011;35869;50.990;6.962;2023-04-25T04:15:13;13.45;;;5.13;;
49978;SDS011;35869;50.990;6.962;2023-04-25T04:20:13;12.02;;;6.15;;
49978;SDS011;35869;50.990;6.962;2023-04-25T04:25:14;12.23;;;5.80;;
49978;SDS011;35869;50.990;6.962;2023-04-25T04:41:20;14.20;;;5.65;;
49978;SDS011;35869;50.990;6.962;2023-04-25T04:46:23;12.68;;;5.25;;
49978;SDS011;35869;50.990;6.962;2023-04-25T04:51:23;10.33;;;6.30;;
49978;SDS011;35869;50.990;6.962;2023-04-25T04:56:24;12.23;;;5.60;;
49978;SDS011;35869;50.990;6.962;2023-04-25T05:01:25;16.30;;;4.80;;
49978;SDS011;35869;50.990;6.962;2023-04-25T05:06:29;11.38;;;4.97;;
49978;SDS011;35869;50.990;6.962;2023-04-25T05:11:29;8.85;;;4.50;;
49978;SDS011;35869;50.990;6.962;2023-04-25T05:16:32;14.77;;;5.97;;
49978;SDS011;35869;50.990;6.962;2023-04-25T05:21:32;13.02;;;6.03;;
49978;SDS011;35869;50.990;6.962;2023-04-25T05:26:32;13.27;;;6.15;;
49978;SDS011;35869;50.990;6.962;2023-04-25T05:31:32;15.35;;;5.88;;
49978;SDS011;35869;50.990;6.962;2023-04-25T05:36:33;15.93;;;6.68;;
49978;SDS011;35869;50.990;6.962;2023-04-25T05:41:33;13.07;;;5.50;;
49978;SDS011;35869;50.990;6.962;2023-04-25T05:46:33;10.18;;;5.45;;
49978;SDS011;35869;50.990;6.962;2023-04-25T05:51:33;14.35;;;5.22;;
49978;SDS011;35869;50.990;6.962;2023-04-25T05:56:33;12.70;;;5.95;;
49978;SDS011;35869;50.990;6.962;2023-04-25T06:01:34;18.17;;;5.85;;
49978;SDS011;35869;50.990;6.962;2023-04-25T06:06:34;14.05;;;6.40;;
49978;SDS011;35869;50.990;6.962;2023-04-25T06:11:34;15.80;;;5.20;;
49978;SDS011;35869;50.990;6.962;2023-04-25T06:16:34;11.18;;;5.63;;
49978;SDS011;35869;50.990;6.962;2023-04-25T06:21:35;14.02;;;5.03;;
49978;SDS011;35869;50.990;6.962;2023-04-25T06:26:35;9.90;;;4.53;;
49978;SDS011;35869;50.990;6.962;2023-04-25T06:31:35;12.13;;;4.57;;
49978;SDS011;35869;50.990;6.962;2023-04-25T06:36:36;12.18;;;4.50;;
49978;SDS011;35869;50.990;6.962;2023-04-25T06:41:37;12.37;;;5.13;;
49978;SDS011;35869;50.990;6.962;2023-04-25T06:51:38;10.98;;;4.07;;
49978;SDS011;35869;50.990;6.962;2023-04-25T06:56:38;15.77;;;4.68;;
49978;SDS011;35869;50.990;6.962;2023-04-25T07:01:38;11.70;;;3.88;;
49978;SDS011;35869;50.990;6.962;2023-04-25T07:06:38;9.38;;;4.00;;
49978;SDS011;35869;50.990;6.962;2023-04-25T07:11:39;14.23;;;3.93;;
49978;SDS011;35869;50.990;6.962;2023-04-25T07:16:39;11.60;;;3.88;;
49978;SDS011;35869;50.990;6.962;2023-04-25T07:21:39;11.18;;;4.43;;
49978;SDS011;35869;50.990;6.962;2023-04-25T07:26:39;15.15;;;4.80;;
49978;SDS011;35869;50.990;6.962;2023-04-25T07:31:40;15.60;;;4.77;;
49978;SDS011;35869;50.990;6.962;2023-04-25T07:36:40;10.77;;;3.63;;
49978;SDS011;35869;50.990;6.962;2023-04-25T07:57:59;9.40;;;3.42;;
49978;SDS011;35869;50.990;6.962;2023-04-25T08:09:08;7.72;;;3.05;;
49978;SDS011;35869;50.990;6.962;2023-04-25T08:14:21;10.65;;;3.15;;
49978;SDS011;35869;50.990;6.962;2023-04-25T08:19:26;5.78;;;3.05;;
49978;SDS011;35869;50.990;6.962;2023-04-25T08:30:17;12.63;;;3.45;;
49978;SDS011;35869;50.990;6.962;2023-04-25T08:35:20;5.97;;;2.55;;
49978;SDS011;35869;50.990;6.962;2023-04-25T08:40:31;8.02;;;3.22;;
49978;SDS011;35869;50.990;6.962;2023-04-25T08:45:40;8.43;;;3.25;;
49978;SDS011;35869;50.990;6.962;2023-04-25T08:50:45;8.00;;;3.40;;
49978;SDS011;35869;50.990;6.962;2023-04-25T08:55:47;11.15;;;3.90;;
49978;SDS011;35869;50.990;6.962;2023-04-25T09:00:48;10.05;;;3.25;;
49978;SDS011;35869;50.990;6.962;2023-04-25T09:05:49;7.55;;;3.35;;
49978;SDS011;35869;50.990;6.962;2023-04-25T09:10:51;10.85;;;3.22;;
49978;SDS011;35869;50.990;6.962;2023-04-25T09:15:52;8.35;;;2.85;;
49978;SDS011;35869;50.990;6.962;2023-04-25T09:20:54;5.32;;;2.78;;
49978;SDS011;35869;50.990;6.962;2023-04-25T09:25:55;5.72;;;2.42;;
49978;SDS011;35869;50.990;6.962;2023-04-25T09:30:56;7.60;;;3.20;;
49978;SDS011;35869;50.990;6.962;2023-04-25T09:36:04;8.18;;;2.88;;
49978;SDS011;35869;50.990;6.962;2023-04-25T09:41:07;6.72;;;2.58;;
49978;SDS011;35869;50.990;6.962;2023-04-25T09:46:09;9.30;;;2.47;;
49978;SDS011;35869;50.990;6.962;2023-04-25T09:56:11;6.32;;;3.03;;
49978;SDS011;35869;50.990;6.962;2023-04-25T10:01:12;6.75;;;2.28;;
49978;SDS011;35869;50.990;6.962;2023-04-25T10:06:14;3.85;;;2.22;;
49978;SDS011;35869;50.990;6.962;2023-04-25T10:11:19;4.65;;;1.70;;
49978;SDS011;35869;50.990;6.962;2023-04-25T10:21:20;6.23;;;2.67;;
49978;SDS011;35869;50.990;6.962;2023-04-25T10:26:21;4.18;;;2.10;;
49978;SDS011;35869;50.990;6.962;2023-04-25T10:31:23;4.28;;;2.40;;
49978;SDS011;35869;50.990;6.962;2023-04-25T10:36:23;5.10;;;1.80;;
49978;SDS011;35869;50.990;6.962;2023-04-25T10:41:24;3.03;;;1.30;;
49978;SDS011;35869;50.990;6.962;2023-04-25T10:46:25;9.63;;;1.83;;
49978;SDS011;35869;50.990;6.962;2023-04-25T10:51:29;3.58;;;1.65;;
49978;SDS011;35869;50.990;6.962;2023-04-25T10:56:41;5.22;;;1.80;;
49978;SDS011;35869;50.990;6.962;2023-04-25T11:07:07;6.78;;;2.20;;
49978;SDS011;35869;50.990;6.962;2023-04-25T11:12:14;3.22;;;2.05;;
49978;SDS011;35869;50.990;6.962;2023-04-25T11:17:15;2.13;;;1.30;;
49978;SDS011;35869;50.990;6.962;2023-04-25T11:22:15;8.05;;;2.05;;
49978;SDS011;35869;50.990;6.962;2023-04-25T11:27:15;8.68;;;1.95;;
49978;SDS011;35869;50.990;6.962;2023-04-25T11:32:17;6.18;;;1.80;;
49978;SDS011;35869;50.990;6.962;2023-04-25T11:37:17;6.13;;;1.50;;
49978;SDS011;35869;50.990;6.962;2023-04-25T11:42:17;3.53;;;1.53;;
49978;SDS011;35869;50.990;6.962;2023-04-25T11:47:18;5.30;;;1.65;;
49978;SDS011;35869;50.990;6.962;2023-04-25T11:52:18;3.55;;;1.63;;
49978;SDS011;35869;50.990;6.962;2023-04-25T11:57:19;7.32;;;2.00;;
49978;SDS011;35869;50.990;6.962;2023-04-25T12:02:25;3.47;;;1.58;;
49978;SDS011;35869;50.990;6.962;2023-04-25T12:07:29;2.58;;;1.20;;
49978;SDS011;35869;50.990;6.962;2023-04-25T12:12:32;2.53;;;1.50;;
49978;SDS011;35869;50.990;6.962;2023-04-25T12:17:33;5.47;;;1.65;;
49978;SDS011;35869;50.990;6.962;2023-04-25T12:22:33;2.50;;;1.15;;
49978;SDS011;35869;50.990;6.962;2023-04-25T12:27:35;2.25;;;1.40;;
49978;SDS011;35869;50.990;6.962;2023-04-25T12:37:35;3.00;;;1.30;;
49978;SDS011;35869;50.990;6.962;2023-04-25T12:42:35;5.57;;;1.40;;
49978;SDS011;35869;50.990;6.962;2023-04-25T12:47:35;4.45;;;1.30;;
49978;SDS011;35869;50.990;6.962;2023-04-25T12:52:36;4.03;;;1.80;;
49978;SDS011;35869;50.990;6.962;2023-04-25T12:57:36;3.95;;;1.70;;
49978;SDS011;35869;50.990;6.962;2023-04-25T13:02:36;5.68;;;1.95;;
49978;SDS011;35869;50.990;6.962;2023-04-25T13:07:36;4.70;;;1.52;;
49978;SDS011;35869;50.990;6.962;2023-04-25T13:12:36;2.17;;;0.93;;
49978;SDS011;35869;50.990;6.962;2023-04-25T13:17:37;2.10;;;1.08;;
49978;SDS011;35869;50.990;6.962;2023-04-25T13:22:38;2.33;;;1.00;;
49978;SDS011;35869;50.990;6.962;2023-04-25T13:27:39;3.63;;;1.50;;
49978;SDS011;35869;50.990;6.962;2023-04-25T13:32:39;3.08;;;1.40;;
49978;SDS011;35869;50.990;6.962;2023-04-25T13:37:40;1.63;;;0.95;;
49978;SDS011;35869;50.990;6.962;2023-04-25T13:42:41;2.83;;;1.50;;
49978;SDS011;35869;50.990;6.962;2023-04-25T13:47:41;6.80;;;2.58;;
49978;SDS011;35869;50.990;6.962;2023-04-25T13:52:42;3.50;;;2.28;;
49978;SDS011;35869;50.990;6.962;2023-04-25T13:57:42;5.03;;;1.87;;
49978;SDS011;35869;50.990;6.962;2023-04-25T14:02:42;2.30;;;1.70;;
49978;SDS011;35869;50.990;6.962;2023-04-25T14:07:42;2.65;;;1.55;;
49978;SDS011;35869;50.990;6.962;2023-04-25T14:12:43;3.70;;;1.73;;
49978;SDS011;35869;50.990;6.962;2023-04-25T14:17:43;5.85;;;2.40;;
49978;SDS011;35869;50.990;6.962;2023-04-25T14:22:43;3.80;;;1.77;;
49978;SDS011;35869;50.990;6.962;2023-04-25T14:27:43;5.45;;;1.80;;
49978;SDS011;35869;50.990;6.962;2023-04-25T14:32:43;5.07;;;1.92;;
49978;SDS011;35869;50.990;6.962;2023-04-25T14:37:44;1.53;;;0.80;;
49978;SDS011;35869;50.990;6.962;2023-04-25T14:42:44;4.95;;;1.58;;
49978;SDS011;35869;50.990;6.962;2023-04-25T14:48:13;1.55;;;0.93;;
49978;SDS011;35869;50.990;6.962;2023-04-25T14:53:30;3.97;;;1.05;;
49978;SDS011;35869;50.990;6.962;2023-04-25T14:58:35;3.40;;;1.23;;
49978;SDS011;35869;50.990;6.962;2023-04-25T15:03:36;3.67;;;0.90;;
49978;SDS011;35869;50.990;6.962;2023-04-25T15:08:36;2.35;;;1.25;;
49978;SDS011;35869;50.990;6.962;2023-04-25T15:13:39;1.93;;;1.30;;
49978;SDS011;35869;50.990;6.962;2023-04-25T15:18:39;3.15;;;1.10;;
49978;SDS011;35869;50.990;6.962;2023-04-25T15:23:40;2.50;;;1.10;;
49978;SDS011;35869;50.990;6.962;2023-04-25T15:28:40;2.85;;;1.20;;
49978;SDS011;35869;50.990;6.962;2023-04-25T15:33:40;4.00;;;1.30;;
49978;SDS011;35869;50.990;6.962;2023-04-25T15:38:40;7.07;;;1.42;;
49978;SDS011;35869;50.990;6.962;2023-04-25T15:43:41;3.58;;;1.35;;
49978;SDS011;35869;50.990;6.962;2023-04-25T15:48:41;5.22;;;1.38;;
49978;SDS011;35869;50.990;6.962;2023-04-25T15:53:41;3.10;;;1.57;;
49978;SDS011;35869;50.990;6.962;2023-04-25T15:58:41;7.15;;;1.92;;
49978;SDS011;35869;50.990;6.962;2023-04-25T16:03:42;5.22;;;2.00;;
49978;SDS011;35869;50.990;6.962;2023-04-25T16:08:42;2.70;;;1.33;;
49978;SDS011;35869;50.990;6.962;2023-04-25T16:13:42;1.77;;;1.10;;
49978;SDS011;35869;50.990;6.962;2023-04-25T16:18:42;5.40;;;1.88;;
49978;SDS011;35869;50.990;6.962;2023-04-25T16:23:43;4.28;;;1.05;;
49978;SDS011;35869;50.990;6.962;2023-04-25T16:28:43;4.80;;;1.40;;
49978;SDS011;35869;50.990;6.962;2023-04-25T16:33:43;8.57;;;1.50;;
49978;SDS011;35869;50.990;6.962;2023-04-25T16:38:43;5.55;;;1.88;;
49978;SDS011;35869;50.990;6.962;2023-04-25T16:43:44;3.60;;;1.50;;
49978;SDS011;35869;50.990;6.962;2023-04-25T16:48:44;6.20;;;1.43;;
49978;SDS011;35869;50.990;6.962;2023-04-25T16:53:45;5.25;;;1.83;;
49978;SDS011;35869;50.990;6.962;2023-04-25T16:58:45;5.72;;;1.55;;
49978;SDS011;35869;50.990;6.962;2023-04-25T17:03:46;2.95;;;0.90;;
49978;SDS011;35869;50.990;6.962;2023-04-25T17:08:46;2.97;;;1.30;;
49978;SDS011;35869;50.990;6.962;2023-04-25T17:13:47;3.15;;;1.08;;
49978;SDS011;35869;50.990;6.962;2023-04-25T17:18:50;6.40;;;1.70;;
49978;SDS011;35869;50.990;6.962;2023-04-25T17:23:50;2.55;;;1.30;;
49978;SDS011;35869;50.990;6.962;2023-04-25T17:28:50;4.32;;;1.30;;
49978;SDS011;35869;50.990;6.962;2023-04-25T17:33:51;2.40;;;1.25;;
49978;SDS011;35869;50.990;6.962;2023-04-25T17:38:51;6.53;;;1.30;;
49978;SDS011;35869;50.990;6.962;2023-04-25T17:43:52;1.88;;;1.10;;
49978;SDS011;35869;50.990;6.962;2023-04-25T17:48:52;4.15;;;1.60;;
49978;SDS011;35869;50.990;6.962;2023-04-25T17:53:52;4.93;;;1.88;;
49978;SDS011;35869;50.990;6.962;2023-04-25T17:58:52;2.13;;;1.20;;
49978;SDS011;35869;50.990;6.962;2023-04-25T18:03:53;2.15;;;1.10;;
49978;SDS011;35869;50.990;6.962;2023-04-25T18:08:53;3.20;;;1.40;;
49978;SDS011;35869;50.990;6.962;2023-04-25T18:13:54;2.75;;;1.25;;
49978;SDS011;35869;50.990;6.962;2023-04-25T18:18:54;3.83;;;1.33;;
49978;SDS011;35869;50.990;6.962;2023-04-25T18:23:55;3.30;;;1.23;;
49978;SDS011;35869;50.990;6.962;2023-04-25T18:28:55;3.90;;;1.52;;
49978;SDS011;35869;50.990;6.962;2023-04-25T18:33:55;5.32;;;1.42;;
49978;SDS011;35869;50.990;6.962;2023-04-25T18:38:55;4.10;;;1.20;;
49978;SDS011;35869;50.990;6.962;2023-04-25T18:43:56;3.07;;;1.27;;
49978;SDS011;35869;50.990;6.962;2023-04-25T18:48:56;3.42;;;1.42;;
49978;SDS011;35869;50.990;6.962;2023-04-25T18:53:57;3.73;;;2.17;;
49978;SDS011;35869;50.990;6.962;2023-04-25T18:58:57;5.28;;;1.30;;
49978;SDS011;35869;50.990;6.962;2023-04-25T19:08:59;2.75;;;1.27;;
49978;SDS011;35869;50.990;6.962;2023-04-25T19:14:00;7.93;;;1.67;;
49978;SDS011;35869;50.990;6.962;2023-04-25T19:19:00;6.47;;;2.23;;
49978;SDS011;35869;50.990;6.962;2023-04-25T19:24:03;3.88;;;1.75;;
49978;SDS011;35869;50.990;6.962;2023-04-25T19:29:05;3.53;;;2.03;;
49978;SDS011;35869;50.990;6.962;2023-04-25T19:34:10;5.95;;;1.85;;
49978;SDS011;35869;50.990;6.962;2023-04-25T19:39:10;10.75;;;2.30;;
49978;SDS011;35869;50.990;6.962;2023-04-25T19:44:11;7.25;;;1.50;;
49978;SDS011;35869;50.990;6.962;2023-04-25T19:49:11;5.90;;;1.75;;
49978;SDS011;35869;50.990;6.962;2023-04-25T19:54:11;3.58;;;1.50;;
49978;SDS011;35869;50.990;6.962;2023-04-25T19:59:11;4.82;;;1.58;;
49978;SDS011;35869;50.990;6.962;2023-04-25T20:04:11;3.53;;;1.80;;
49978;SDS011;35869;50.990;6.962;2023-04-25T20:09:12;4.32;;;1.52;;
49978;SDS011;35869;50.990;6.962;2023-04-25T20:14:12;6.53;;;1.70;;
49978;SDS011;35869;50.990;6.962;2023-04-25T20:19:12;4.55;;;1.63;;
49978;SDS011;35869;50.990;6.962;2023-04-25T20:24:12;3.35;;;1.67;;
49978;SDS011;35869;50.990;6.962;2023-04-25T20:29:13;7.80;;;1.40;;
49978;SDS011;35869;50.990;6.962;2023-04-25T20:34:13;4.77;;;1.90;;
49978;SDS011;35869;50.990;6.962;2023-04-25T20:39:13;4.40;;;1.88;;
49978;SDS011;35869;50.990;6.962;2023-04-25T20:44:13;5.25;;;1.77;;
49978;SDS011;35869;50.990;6.962;2023-04-25T20:49:14;3.20;;;1.60;;
49978;SDS011;35869;50.990;6.962;2023-04-25T20:54:14;4.73;;;1.70;;
49978;SDS011;35869;50.990;6.962;2023-04-25T20:59:15;4.88;;;1.77;;
49978;SDS011;35869;50.990;6.962;2023-04-25T21:04:15;5.10;;;1.73;;
49978;SDS011;35869;50.990;6.962;2023-04-25T21:09:15;5.57;;;1.92;;
49978;SDS011;35869;50.990;6.962;2023-04-25T21:14:15;5.90;;;2.00;;
49978;SDS011;35869;50.990;6.962;2023-04-25T21:19:16;5.68;;;1.92;;
49978;SDS011;35869;50.990;6.962;2023-04-25T21:24:16;7.37;;;2.33;;
49978;SDS011;35869;50.990;6.962;2023-04-25T21:29:16;3.40;;;2.03;;
49978;SDS011;35869;50.990;6.962;2023-04-25T21:34:16;6.82;;;2.10;;
49978;SDS011;35869;50.990;6.962;2023-04-25T21:39:17;9.33;;;1.97;;
49978;SDS011;35869;50.990;6.962;2023-04-25T21:44:17;3.58;;;1.30;;
49978;SDS011;35869;50.990;6.962;2023-04-25T21:49:17;5.93;;;2.00;;
49978;SDS011;35869;50.990;6.962;2023-04-25T21:54:17;4.80;;;1.67;;
49978;SDS011;35869;50.990;6.962;2023-04-25T21:59:17;4.50;;;2.03;;
49978;SDS011;35869;50.990;6.962;2023-04-25T22:04:18;4.45;;;1.77;;
49978;SDS011;35869;50.990;6.962;2023-04-25T22:09:18;5.82;;;2.10;;
49978;SDS011;35869;50.990;6.962;2023-04-25T22:14:19;2.47;;;1.77;;
49978;SDS011;35869;50.990;6.962;2023-04-25T22:24:20;5.97;;;2.42;;
49978;SDS011;35869;50.990;6.962;2023-04-25T22:29:20;2.40;;;1.80;;
